Emmonak Airport Emmonak US
ICAO: PAEM
IATA:
Category: Medium
Scheduled Services:

Elevation: 13 ft
TransAlt. 18000 ft.

Airport Communications:
AWOS 3:135.35
ANCHORAGE CNTR:132.5
CTAF:122.9
KENAI RDO:122.55
TWEB:177.8

PAEM Zoom In..

Runways:

(A) RW 16 length 4601 ft width 100 ft
---- / hdg 163

(B) RW 34 length 4601 ft width 100 ft
---- / hdg 343

Location; PAEM
Day. 21 / Time. 19.23 Zulu
* Altimeter: 30.25
* Temperature: -06° c. -21.2°f.
* Wind from: 260° Speed 17 kn with Gusts up to 24 kn.
Dewpoint: -07° c.
Visibility: 3 Statute Miles.
Clouds: Few 600 ft.
Conditions: Light Snow.Conditions: Mist.

PAEM 211923Z 26017G24KT 3SM -SN BR FEW006 M06/M07 A3025 RMK AUTO NOSPECI


Wind From 260°
Speed 17 kn.

 
 
jpsmedia worldairports.se 2020   terms of use